createdAt,value
2022-12-29T00:02:16.419Z,9.00
2022-12-29T00:04:50.323Z,9.00
2022-12-29T00:07:22.595Z,9.00
2022-12-29T00:09:55.770Z,9.00
2022-12-29T00:12:48.161Z,9.00
2022-12-29T00:15:36.295Z,9.00
2022-12-29T00:18:08.668Z,9.00
2022-12-29T00:20:56.271Z,9.60
2022-12-29T00:23:43.726Z,8.90
2022-12-29T00:26:33.580Z,8.90
2022-12-29T00:29:21.977Z,8.90
2022-12-29T00:32:10.260Z,8.80
2022-12-29T00:34:58.546Z,8.90
2022-12-29T00:37:46.251Z,8.90
2022-12-29T00:40:34.414Z,8.90
2022-12-29T00:43:21.980Z,8.90
2022-12-29T00:45:54.273Z,9.00
2022-12-29T00:48:41.788Z,9.00
2022-12-29T00:51:14.197Z,8.90
2022-12-29T00:53:46.634Z,8.90
2022-12-29T00:56:19.068Z,9.00
2022-12-29T00:58:51.484Z,9.00
2022-12-29T01:01:23.862Z,9.00
2022-12-29T01:04:01.889Z,9.00
2022-12-29T01:06:37.768Z,9.00
2022-12-29T01:09:26.475Z,9.00
2022-12-29T01:11:59.196Z,9.00
2022-12-29T01:14:31.821Z,9.00
2022-12-29T01:17:05.151Z,9.00
2022-12-29T01:19:38.782Z,9.00
2022-12-29T01:22:11.254Z,9.00
2022-12-29T01:24:43.649Z,9.00
2022-12-29T01:27:19.136Z,9.00
2022-12-29T01:29:51.526Z,9.00
2022-12-29T01:32:24.576Z,9.00
2022-12-29T01:34:56.867Z,9.00
2022-12-29T01:37:29.152Z,9.00
2022-12-29T01:40:01.777Z,9.00
2022-12-29T01:42:34.120Z,9.00
2022-12-29T01:45:10.475Z,9.00
2022-12-29T01:47:44.989Z,9.00
2022-12-29T01:50:24.668Z,9.00
2022-12-29T01:53:12.539Z,8.90
2022-12-29T01:55:49.806Z,9.00
2022-12-29T01:58:24.033Z,9.00
2022-12-29T02:00:56.409Z,9.00
2022-12-29T02:03:30.833Z,8.90
2022-12-29T02:06:09.956Z,8.90
2022-12-29T02:08:44.679Z,8.90
2022-12-29T02:11:17.411Z,8.90
2022-12-29T02:13:49.826Z,8.90
2022-12-29T02:16:22.517Z,8.80
2022-12-29T02:19:10.278Z,8.90
2022-12-29T02:21:47.832Z,8.80
2022-12-29T02:24:21.441Z,8.80
2022-12-29T02:26:57.078Z,8.80
2022-12-29T02:29:30.704Z,8.80
2022-12-29T02:32:08.401Z,8.80
2022-12-29T02:34:54.864Z,8.90
2022-12-29T02:37:30.162Z,8.90
2022-12-29T02:40:17.682Z,8.90
2022-12-29T02:42:51.157Z,8.90
2022-12-29T02:45:27.923Z,8.80
2022-12-29T02:48:16.140Z,8.80
2022-12-29T02:50:59.915Z,8.80
2022-12-29T02:53:49.999Z,8.90
2022-12-29T02:56:24.569Z,8.90
2022-12-29T02:58:58.123Z,8.90
2022-12-29T03:01:31.916Z,8.90
2022-12-29T03:04:12.247Z,8.90
2022-12-29T03:06:53.399Z,8.90
2022-12-29T03:09:41.944Z,8.90
2022-12-29T03:12:20.747Z,8.90
2022-12-29T03:15:24.807Z,8.90
2022-12-29T03:18:04.842Z,8.90
2022-12-29T03:20:45.301Z,8.90
2022-12-29T03:23:20.897Z,8.90
2022-12-29T03:25:56.008Z,8.90
2022-12-29T03:28:31.172Z,8.90
2022-12-29T03:31:04.676Z,8.90
2022-12-29T03:33:38.560Z,8.90
2022-12-29T03:36:13.520Z,8.80
2022-12-29T03:38:48.709Z,8.80
2022-12-29T03:41:30.182Z,8.80
2022-12-29T03:44:06.875Z,8.80
2022-12-29T03:46:40.465Z,8.80
2022-12-29T03:49:13.296Z,8.80
2022-12-29T03:51:45.857Z,8.80
2022-12-29T03:54:18.959Z,8.80
2022-12-29T03:56:51.355Z,8.80
2022-12-29T03:59:33.518Z,8.80
2022-12-29T04:02:07.353Z,8.80
2022-12-29T04:04:40.721Z,8.80
2022-12-29T04:07:13.437Z,8.80
2022-12-29T04:09:47.014Z,8.80
2022-12-29T04:12:25.720Z,8.80
2022-12-29T04:14:58.331Z,8.80
2022-12-29T04:17:30.789Z,8.80
2022-12-29T04:20:18.441Z,8.80
2022-12-29T04:22:51.078Z,8.80
2022-12-29T04:25:23.898Z,8.80
2022-12-29T04:27:56.837Z,8.80
2022-12-29T04:30:45.591Z,8.70
2022-12-29T04:33:23.646Z,8.70
2022-12-29T04:35:56.348Z,8.70
2022-12-29T04:38:29.643Z,8.80
2022-12-29T04:41:03.675Z,8.70
2022-12-29T04:43:36.543Z,8.70
2022-12-29T04:46:24.457Z,8.70
2022-12-29T04:49:09.965Z,8.70
2022-12-29T04:51:58.385Z,8.70
2022-12-29T04:54:32.768Z,8.70
2022-12-29T04:57:20.168Z,8.70
2022-12-29T04:59:56.844Z,8.70
2022-12-29T05:02:30.531Z,8.70
2022-12-29T05:05:03.107Z,8.70
2022-12-29T05:07:36.768Z,8.70
2022-12-29T05:10:09.719Z,8.70
2022-12-29T05:12:42.392Z,8.70
2022-12-29T05:15:14.707Z,8.80
2022-12-29T05:17:48.601Z,8.80
2022-12-29T05:20:21.012Z,8.80
2022-12-29T05:22:53.708Z,8.70
2022-12-29T05:25:26.502Z,8.70
2022-12-29T05:28:10.631Z,8.70
2022-12-29T05:30:50.086Z,8.70
2022-12-29T05:33:23.733Z,8.70
2022-12-29T05:35:57.616Z,8.70
2022-12-29T05:38:30.469Z,8.70
2022-12-29T05:41:03.061Z,8.70
2022-12-29T05:43:42.543Z,8.80
2022-12-29T05:46:23.622Z,8.80
2022-12-29T05:49:12.431Z,8.80
2022-12-29T05:52:00.261Z,8.80
2022-12-29T05:54:34.211Z,8.70
2022-12-29T05:57:08.100Z,8.70
2022-12-29T05:59:40.633Z,8.70
2022-12-29T06:02:13.304Z,8.70
2022-12-29T06:04:48.083Z,8.70
2022-12-29T06:07:21.570Z,8.80
2022-12-29T06:09:54.681Z,8.80
2022-12-29T06:12:27.169Z,8.80
2022-12-29T06:15:01.259Z,8.70
2022-12-29T06:17:33.717Z,8.70
2022-12-29T06:20:07.589Z,8.80
2022-12-29T06:22:40.296Z,8.80
2022-12-29T06:25:13.396Z,8.70
2022-12-29T06:27:48.900Z,8.80
2022-12-29T06:30:21.375Z,8.80
2022-12-29T06:32:54.038Z,8.80
2022-12-29T06:35:29.221Z,8.80
2022-12-29T06:38:01.601Z,8.80
2022-12-29T06:40:34.032Z,8.70
2022-12-29T06:43:17.945Z,8.70
2022-12-29T06:46:06.623Z,8.70
2022-12-29T06:48:39.070Z,8.70
2022-12-29T06:51:11.636Z,8.70
2022-12-29T06:53:44.092Z,8.70
2022-12-29T06:56:16.420Z,8.70
2022-12-29T06:58:48.809Z,8.80
2022-12-29T07:01:21.551Z,9.00
2022-12-29T07:03:54.217Z,8.80
2022-12-29T07:06:27.529Z,8.80
2022-12-29T07:09:00.913Z,8.80
2022-12-29T07:11:33.381Z,8.80
2022-12-29T07:14:05.774Z,8.80
2022-12-29T07:16:38.396Z,8.80
2022-12-29T07:19:10.769Z,8.80
2022-12-29T07:21:45.673Z,8.80
2022-12-29T07:24:18.167Z,8.80
2022-12-29T07:26:50.681Z,8.80
2022-12-29T07:29:23.157Z,8.90
2022-12-29T07:31:55.608Z,8.90
2022-12-29T07:34:28.320Z,8.90
2022-12-29T07:37:00.640Z,8.90
2022-12-29T07:39:32.958Z,8.90
2022-12-29T07:42:05.499Z,8.90
2022-12-29T07:44:46.868Z,8.90
2022-12-29T07:47:25.013Z,8.90
2022-12-29T07:49:57.573Z,8.90
2022-12-29T07:52:30.151Z,8.90
2022-12-29T07:55:02.435Z,9.00
2022-12-29T07:57:34.843Z,9.00
2022-12-29T08:00:07.782Z,9.00
2022-12-29T08:02:44.435Z,9.00
2022-12-29T08:05:17.159Z,9.00
2022-12-29T08:07:49.491Z,9.00
2022-12-29T08:10:21.996Z,9.00
2022-12-29T08:12:54.469Z,9.00
2022-12-29T08:15:32.121Z,9.00
2022-12-29T08:18:05.364Z,9.00
2022-12-29T08:20:37.922Z,9.00
2022-12-29T08:23:10.383Z,9.10
2022-12-29T08:25:42.927Z,9.10
2022-12-29T08:28:15.332Z,9.00
2022-12-29T08:30:47.850Z,9.00
2022-12-29T08:33:20.426Z,9.00
2022-12-29T08:35:52.696Z,9.00
2022-12-29T08:38:25.067Z,9.00
2022-12-29T08:40:57.978Z,9.00
2022-12-29T08:43:30.500Z,9.00
2022-12-29T08:46:03.189Z,9.10
2022-12-29T08:48:35.676Z,9.10
2022-12-29T08:51:09.120Z,9.10
2022-12-29T08:53:41.614Z,9.10
2022-12-29T08:56:13.943Z,9.10
2022-12-29T08:58:54.148Z,9.10
2022-12-29T09:01:28.301Z,9.10
2022-12-29T09:04:17.477Z,9.10
2022-12-29T09:06:50.984Z,9.10
2022-12-29T09:09:23.464Z,9.10
2022-12-29T09:11:56.229Z,9.10
2022-12-29T09:14:28.739Z,9.10
2022-12-29T09:17:16.782Z,9.10
2022-12-29T09:19:49.340Z,9.10
2022-12-29T09:22:21.733Z,9.10
2022-12-29T09:24:56.580Z,9.10
2022-12-29T09:27:28.957Z,9.10
2022-12-29T09:30:01.376Z,9.10
2022-12-29T09:32:36.036Z,9.10
2022-12-29T09:35:10.522Z,9.20
2022-12-29T09:37:43.036Z,9.20
2022-12-29T09:40:31.241Z,9.20
2022-12-29T09:43:14.517Z,9.10
2022-12-29T09:45:48.430Z,9.10
2022-12-29T09:48:24.048Z,9.10
2022-12-29T09:50:58.205Z,9.10
2022-12-29T09:53:35.963Z,9.20
2022-12-29T09:56:15.460Z,9.20
2022-12-29T09:58:52.815Z,9.20
2022-12-29T10:01:30.474Z,9.20
2022-12-29T10:04:04.679Z,9.20
2022-12-29T10:06:50.175Z,9.20
2022-12-29T10:09:31.610Z,9.20
2022-12-29T10:12:05.036Z,9.30
2022-12-29T10:14:45.242Z,9.30
2022-12-29T10:17:26.032Z,9.30
2022-12-29T10:20:03.401Z,9.30
2022-12-29T10:22:39.131Z,9.30
2022-12-29T10:25:16.268Z,9.30
2022-12-29T10:27:49.469Z,9.30
2022-12-29T10:30:22.004Z,9.30
2022-12-29T10:32:56.714Z,9.40
2022-12-29T10:35:37.048Z,9.40
2022-12-29T10:38:11.064Z,9.40
2022-12-29T10:40:55.623Z,9.50
2022-12-29T10:43:31.879Z,9.50
2022-12-29T10:46:06.760Z,9.50
2022-12-29T10:48:39.623Z,9.60
2022-12-29T10:51:18.435Z,9.60
2022-12-29T10:53:54.711Z,9.50
2022-12-29T10:56:35.107Z,9.60
2022-12-29T10:59:14.580Z,9.50
2022-12-29T11:01:56.093Z,9.50
2022-12-29T11:04:43.916Z,9.50
2022-12-29T11:07:22.174Z,9.50
2022-12-29T11:10:18.107Z,9.50
2022-12-29T11:12:56.628Z,9.50
2022-12-29T11:15:39.589Z,9.50
2022-12-29T11:18:27.272Z,9.50
2022-12-29T11:21:02.136Z,9.50
2022-12-29T11:23:36.226Z,9.50
2022-12-29T11:26:09.003Z,9.50
2022-12-29T11:28:42.977Z,9.50
2022-12-29T11:31:17.728Z,9.50
2022-12-29T11:33:50.740Z,9.60
2022-12-29T11:36:24.888Z,9.60
2022-12-29T11:38:57.970Z,9.70
2022-12-29T11:41:31.366Z,9.70
2022-12-29T11:44:06.395Z,9.70
2022-12-29T11:46:39.834Z,9.70
2022-12-29T11:49:15.704Z,9.70
2022-12-29T11:51:50.541Z,9.70
2022-12-29T11:54:26.228Z,9.70
2022-12-29T11:56:59.189Z,9.80
2022-12-29T11:59:35.392Z,9.80
2022-12-29T12:02:22.632Z,9.80
2022-12-29T12:05:10.951Z,9.70
2022-12-29T12:07:45.204Z,9.80
2022-12-29T12:10:24.247Z,9.70
2022-12-29T12:12:59.951Z,9.70
2022-12-29T12:15:47.518Z,9.70
2022-12-29T12:18:37.687Z,9.60
2022-12-29T12:21:11.369Z,9.60
2022-12-29T12:23:58.800Z,9.60
2022-12-29T12:26:36.717Z,9.60
2022-12-29T12:29:15.710Z,9.50
2022-12-29T12:31:53.257Z,9.60
2022-12-29T12:34:32.360Z,9.50
2022-12-29T12:37:22.949Z,9.50
2022-12-29T12:39:59.393Z,9.50
2022-12-29T12:42:47.233Z,9.40
2022-12-29T12:45:23.582Z,9.40
2022-12-29T12:48:12.346Z,9.40
2022-12-29T12:51:00.466Z,9.40
2022-12-29T12:53:33.095Z,9.40
2022-12-29T12:56:21.380Z,9.40
2022-12-29T12:59:07.222Z,9.40
2022-12-29T13:01:42.951Z,9.40
2022-12-29T13:04:35.369Z,9.40
2022-12-29T13:07:16.793Z,9.40
2022-12-29T13:10:05.067Z,9.40
2022-12-29T13:12:44.683Z,9.40
2022-12-29T13:15:17.626Z,9.40
2022-12-29T13:17:54.508Z,9.40
2022-12-29T13:20:42.774Z,9.40
2022-12-29T13:23:24.647Z,9.40
2022-12-29T13:26:04.166Z,9.50
2022-12-29T13:28:40.382Z,9.40
2022-12-29T13:31:16.714Z,9.50
2022-12-29T13:33:57.912Z,9.40
2022-12-29T13:36:38.260Z,9.50
2022-12-29T13:39:16.169Z,9.40
2022-12-29T13:41:55.895Z,9.40
2022-12-29T13:44:37.372Z,9.40
2022-12-29T13:47:21.173Z,9.40
2022-12-29T13:49:58.222Z,9.40
2022-12-29T13:52:41.349Z,9.30
2022-12-29T13:55:15.067Z,9.30
2022-12-29T13:57:48.726Z,9.30
2022-12-29T14:00:22.339Z,9.30
2022-12-29T14:03:12.326Z,9.30
2022-12-29T14:05:48.617Z,9.30
2022-12-29T14:08:21.331Z,9.30
2022-12-29T14:10:53.745Z,9.40
2022-12-29T14:13:28.886Z,9.40
2022-12-29T14:16:02.873Z,9.40
2022-12-29T14:18:42.985Z,9.40
2022-12-29T14:21:15.848Z,9.30
2022-12-29T14:23:49.007Z,9.30
2022-12-29T14:26:37.115Z,9.40
2022-12-29T14:29:18.327Z,9.30
2022-12-29T14:31:51.395Z,9.40
2022-12-29T14:34:24.228Z,9.30
2022-12-29T14:37:00.630Z,9.40
2022-12-29T14:39:38.512Z,9.40
2022-12-29T14:42:11.621Z,9.40
2022-12-29T14:44:51.265Z,9.40
2022-12-29T14:47:33.258Z,9.40
2022-12-29T14:50:13.187Z,9.40
2022-12-29T14:52:45.942Z,9.30
2022-12-29T14:55:18.678Z,9.40
2022-12-29T14:57:52.522Z,9.40
2022-12-29T15:00:27.629Z,9.40
2022-12-29T15:03:20.981Z,9.40
2022-12-29T15:05:54.833Z,9.40
2022-12-29T15:08:29.464Z,9.40
2022-12-29T15:11:03.516Z,9.40
2022-12-29T15:13:37.799Z,9.40
2022-12-29T15:16:25.354Z,9.40
2022-12-29T15:18:58.636Z,9.40
2022-12-29T15:21:33.114Z,9.40
2022-12-29T15:24:05.625Z,9.40
2022-12-29T15:26:39.791Z,9.40
2022-12-29T15:29:30.025Z,9.30
2022-12-29T15:32:11.988Z,9.30
2022-12-29T15:34:45.188Z,9.40
2022-12-29T15:37:19.957Z,9.30
2022-12-29T15:39:53.727Z,9.30
2022-12-29T15:42:31.104Z,9.30
2022-12-29T15:45:11.183Z,9.30
2022-12-29T15:47:47.676Z,9.30
2022-12-29T15:50:21.678Z,9.30
2022-12-29T15:52:53.914Z,9.30
2022-12-29T15:55:29.708Z,9.30
2022-12-29T15:58:03.876Z,9.30
2022-12-29T16:00:38.569Z,9.30
2022-12-29T16:03:14.315Z,9.20
2022-12-29T16:05:55.801Z,9.20
2022-12-29T16:08:33.716Z,9.20
2022-12-29T16:11:20.075Z,9.20
2022-12-29T16:13:53.360Z,9.20
2022-12-29T16:16:29.532Z,9.20
2022-12-29T16:19:05.093Z,9.20
2022-12-29T16:21:37.594Z,9.10
2022-12-29T16:24:15.312Z,9.20
2022-12-29T16:26:52.720Z,9.20
2022-12-29T16:29:25.599Z,10.70
2022-12-29T16:32:04.420Z,9.10
2022-12-29T16:34:41.078Z,9.20
2022-12-29T16:37:29.334Z,9.10
2022-12-29T16:40:16.754Z,9.20
2022-12-29T16:42:52.281Z,9.10
2022-12-29T16:45:45.171Z,9.10
2022-12-29T16:48:20.081Z,9.10
2022-12-29T16:50:53.141Z,9.20
2022-12-29T16:53:28.306Z,9.20
2022-12-29T16:56:04.650Z,9.20
2022-12-29T16:58:39.340Z,9.20
2022-12-29T17:01:15.874Z,9.20
2022-12-29T17:03:50.245Z,10.60
2022-12-29T17:06:23.907Z,9.20
2022-12-29T17:08:58.513Z,9.10
2022-12-29T17:11:55.575Z,9.10
2022-12-29T17:14:43.798Z,9.20
2022-12-29T17:17:17.783Z,9.10
2022-12-29T17:19:52.719Z,9.10
2022-12-29T17:22:26.407Z,9.10
2022-12-29T17:24:59.946Z,9.10
2022-12-29T17:27:36.321Z,9.10
2022-12-29T17:30:16.989Z,9.10
2022-12-29T17:32:52.940Z,9.10
2022-12-29T17:35:25.260Z,9.10
2022-12-29T17:37:57.486Z,9.10
2022-12-29T17:40:32.464Z,9.10
2022-12-29T17:43:04.742Z,9.10
2022-12-29T17:45:39.665Z,9.10
2022-12-29T17:48:13.067Z,9.10
2022-12-29T17:50:47.893Z,9.10
2022-12-29T17:53:22.140Z,9.10
2022-12-29T17:55:54.892Z,9.10
2022-12-29T17:58:29.360Z,9.10
2022-12-29T18:01:02.678Z,9.20
2022-12-29T18:03:38.040Z,9.20
2022-12-29T18:06:12.046Z,9.10
2022-12-29T18:08:45.045Z,9.10
2022-12-29T18:11:27.841Z,9.10
2022-12-29T18:14:00.269Z,9.10
2022-12-29T18:16:32.702Z,9.10
2022-12-29T18:19:05.049Z,9.10
2022-12-29T18:21:38.658Z,9.10
2022-12-29T18:24:13.981Z,9.10
2022-12-29T18:26:46.823Z,9.10
2022-12-29T18:29:19.398Z,9.10
2022-12-29T18:31:52.418Z,9.10
2022-12-29T18:34:24.799Z,9.10
2022-12-29T18:36:59.065Z,9.00
2022-12-29T18:39:31.703Z,9.10
2022-12-29T18:42:04.971Z,9.10
2022-12-29T18:44:37.371Z,9.10
2022-12-29T18:47:09.970Z,9.10
2022-12-29T18:49:42.757Z,9.10
2022-12-29T18:52:15.462Z,9.10
2022-12-29T18:54:47.914Z,9.00
2022-12-29T18:57:20.613Z,9.00
2022-12-29T18:59:53.191Z,9.00
2022-12-29T19:02:27.827Z,9.00
2022-12-29T19:05:06.916Z,9.00
2022-12-29T19:07:40.339Z,9.10
2022-12-29T19:10:12.943Z,9.10
2022-12-29T19:12:45.341Z,9.10
2022-12-29T19:15:19.020Z,9.10
2022-12-29T19:18:08.567Z,9.10
2022-12-29T19:20:44.990Z,9.10
2022-12-29T19:23:18.517Z,9.10
2022-12-29T19:25:51.560Z,9.10
2022-12-29T19:28:25.264Z,9.10
2022-12-29T19:30:59.952Z,9.10
2022-12-29T19:33:33.655Z,9.10
2022-12-29T19:36:06.347Z,9.00
2022-12-29T19:38:39.183Z,9.10
2022-12-29T19:41:11.610Z,9.10
2022-12-29T19:43:44.527Z,9.10
2022-12-29T19:46:21.238Z,9.10
2022-12-29T19:48:59.488Z,9.10
2022-12-29T19:51:31.847Z,9.10
2022-12-29T19:54:04.302Z,9.10
2022-12-29T19:56:36.942Z,9.10
2022-12-29T19:59:09.590Z,9.10
2022-12-29T20:01:44.514Z,9.10
2022-12-29T20:04:17.373Z,9.10
2022-12-29T20:06:50.162Z,9.10
2022-12-29T20:09:22.872Z,9.10
2022-12-29T20:11:55.568Z,9.10
2022-12-29T20:14:28.153Z,9.10
2022-12-29T20:17:11.388Z,9.00
2022-12-29T20:19:47.988Z,9.00
2022-12-29T20:22:20.838Z,9.00
2022-12-29T20:25:05.103Z,9.00
2022-12-29T20:27:45.684Z,9.00
2022-12-29T20:30:19.281Z,9.00
2022-12-29T20:32:52.337Z,9.00
2022-12-29T20:35:25.149Z,9.00
2022-12-29T20:37:57.653Z,9.00
2022-12-29T20:40:30.215Z,9.00
2022-12-29T20:43:02.981Z,9.00
2022-12-29T20:45:35.588Z,9.00
2022-12-29T20:48:08.197Z,9.00
2022-12-29T20:50:41.265Z,9.00
2022-12-29T20:53:13.940Z,9.00
2022-12-29T20:55:46.789Z,9.00
2022-12-29T20:58:23.969Z,9.00
2022-12-29T21:01:00.615Z,9.00
2022-12-29T21:03:33.207Z,9.00
2022-12-29T21:06:06.847Z,9.00
2022-12-29T21:08:40.016Z,9.00
2022-12-29T21:11:13.067Z,9.00
2022-12-29T21:13:45.610Z,9.00
2022-12-29T21:16:21.309Z,9.00
2022-12-29T21:18:54.083Z,9.00
2022-12-29T21:21:26.450Z,9.00
2022-12-29T21:24:05.583Z,9.00
2022-12-29T21:26:38.091Z,9.00
2022-12-29T21:29:10.329Z,9.00
2022-12-29T21:31:42.764Z,9.00
2022-12-29T21:34:15.134Z,9.00
2022-12-29T21:36:47.818Z,9.00
2022-12-29T21:39:20.282Z,9.00
2022-12-29T21:41:52.842Z,9.00
2022-12-29T21:44:44.473Z,9.00
2022-12-29T21:47:16.818Z,9.00
2022-12-29T21:49:49.362Z,9.00
2022-12-29T21:52:22.110Z,9.00
2022-12-29T21:55:02.216Z,9.00
2022-12-29T21:57:49.991Z,9.00
2022-12-29T22:00:40.422Z,8.90
2022-12-29T22:03:28.168Z,8.90
2022-12-29T22:06:16.395Z,8.90
2022-12-29T22:09:06.994Z,8.90
2022-12-29T22:11:57.925Z,9.00
2022-12-29T22:14:30.277Z,8.90
2022-12-29T22:17:02.676Z,8.90
2022-12-29T22:19:35.106Z,8.90
2022-12-29T22:22:07.396Z,8.90
2022-12-29T22:24:40.178Z,8.90
2022-12-29T22:27:12.561Z,8.90
2022-12-29T22:29:45.961Z,8.90
2022-12-29T22:32:18.350Z,8.90
2022-12-29T22:34:51.082Z,8.90
2022-12-29T22:37:24.250Z,8.90
2022-12-29T22:39:56.749Z,8.90
2022-12-29T22:42:29.261Z,8.90
2022-12-29T22:45:01.911Z,8.90
2022-12-29T22:47:34.487Z,8.90
2022-12-29T22:50:07.369Z,8.90
2022-12-29T22:52:39.776Z,8.90
2022-12-29T22:55:12.055Z,8.90
2022-12-29T22:57:44.411Z,8.90
2022-12-29T23:00:16.823Z,8.90
2022-12-29T23:02:49.233Z,8.90
2022-12-29T23:05:22.638Z,8.90
2022-12-29T23:07:54.971Z,8.90
2022-12-29T23:10:27.314Z,8.90
2022-12-29T23:12:59.617Z,8.90
2022-12-29T23:15:31.938Z,8.90
2022-12-29T23:18:04.339Z,8.90
2022-12-29T23:20:36.691Z,8.90
2022-12-29T23:23:09.061Z,8.90
2022-12-29T23:25:41.438Z,8.90
2022-12-29T23:28:13.754Z,8.90
2022-12-29T23:30:46.196Z,8.90
2022-12-29T23:33:18.542Z,8.90
2022-12-29T23:35:51.150Z,8.90
2022-12-29T23:38:23.568Z,8.90
2022-12-29T23:40:56.126Z,8.90
2022-12-29T23:43:28.488Z,9.00
2022-12-29T23:46:16.677Z,8.90
2022-12-29T23:48:49.137Z,8.90
2022-12-29T23:51:22.105Z,8.90
2022-12-29T23:53:54.407Z,8.90
2022-12-29T23:56:26.807Z,8.90
2022-12-29T23:58:59.512Z,8.90
